• Join FlightAware (Why Join?)
  • Login
  • US Flag GB Flag 
04:52 EDT


 

Airport Tracker/Info


-or-


 

Live Flight TrackerFlight Track Log ✈ CTL13 ✈ 16-Apr-2013 ✈ KMDW - KGRR

Flight Track Log - Related Links

Times and Time Zones

All times are in EDT time to prevent confusion due to time zone crossing. See the CTL13 flight status page for this flight to view local times or setup timezone preferences in your user account.

Time Position Orientation Groundspeed Altitude Reporting Facility
EDT Latitude Longitude Course Direction KTS MPH feet Rate Location/Type
23:13 41.7833 -87.7000 66° East 134 154 1,800  Level Chicago TRACON
23:14 41.8000 -87.6500 66° East 135 155 2,600 840 Climbing Chicago TRACON
23:15 41.8000 -87.6000 90° East 138 159 3,500 840 Climbing Chicago TRACON
23:16 41.8000 -87.5500 90° East 146 168 4,300 840 Climbing Chicago TRACON
23:17 41.8167 -87.5000 66° East 145 167 5,200 780 Climbing Chicago TRACON
23:18 41.8333 -87.4500 66° East 149 171 5,900 360 Climbing Chicago TRACON
23:19 41.8667 -87.4000 48° Northeast 177 204 6,000  Climbing Chicago TRACON
23:20 41.8906 -87.3469 59° Northeast 179 206 5,900 -60 Descending Chicago Center
23:21 41.9192 -87.2914 55° Northeast 182 209 5,900  Level Chicago Center
23:22 41.9494 -87.2372 53° Northeast 181 208 5,900  Level Chicago Center
23:23 41.9794 -87.1825 54° Northeast 182 209 6,000  Climbing Chicago Center
23:24 42.0081 -87.1267 55° Northeast 182 209 5,900 -60 Descending Chicago Center
23:25 42.0386 -87.0708 54° Northeast 184 212 5,900 300 Level Chicago Center
23:26 42.0683 -87.0161 54° Northeast 179 206 6,600 540 Climbing Chicago Center
23:27 42.0964 -86.9650 53° Northeast 172 198 7,000 180 Climbing Chicago Center
23:28 42.1250 -86.9097 55° Northeast 178 205 7,000  Level Chicago Center
23:29 42.1572 -86.8533 52° Northeast 187 215 7,000  Level Chicago Center
23:30 42.1864 -86.7986 54° Northeast 183 211 7,000  Level Chicago Center
23:31 42.2169 -86.7439 53° Northeast 181 208 7,000  Level Chicago Center
23:32 42.2467 -86.6892 54° Northeast 180 207 7,000  Level Chicago Center
23:33 42.2750 -86.6361 54° Northeast 176 203 7,000  Level Chicago Center
23:34 42.3083 -86.5739 54° Northeast 177 204 7,000  Level Chicago Center
23:35 42.3378 -86.5200 54° Northeast 178 205 7,000  Level Chicago Center
23:36 42.3661 -86.4667 54° Northeast 176 203 7,000  Level Chicago Center
23:38 42.4117 -86.3987 48° Northeast  Level FlightAware Approximate
23:38 42.4242 -86.3628 48° Northeast 176 203 7,000  Level Chicago Center
23:39 42.4531 -86.3097 54° Northeast 176 203 7,000  Level Chicago Center
23:40 42.4822 -86.2581 53° Northeast 175 201 7,000  Level Chicago Center
23:41 42.5108 -86.2053 54° Northeast 175 201 7,000  Level Chicago Center
23:42 42.5408 -86.1519 53° Northeast 176 203 7,000 -180 Level Chicago Center
23:43 42.5731 -86.1006 50° Northeast 178 205 6,700 -600 Descending Chicago Center
23:44 42.6114 -86.0314 53° Northeast 189 217 5,900 -660 Descending Chicago Center
23:45 42.6425 -85.9697 56° Northeast 197 227 5,400 -600 Descending Chicago Center
23:46 42.6728 -85.9106 55° Northeast 194 223 4,800 -660 Descending Chicago Center
23:47 42.7022 -85.8572 53° Northeast 184 212 4,100 -600 Descending Chicago Center
23:48 42.7314 -85.8058 52° Northeast 175 201 3,600 -480 Descending Chicago Center
23:49 42.7575 -85.7558 55° Northeast 167 192 3,200 -480 Descending Chicago Center
23:50 42.7831 -85.7069 55° Northeast 163 188 2,700 -480 Descending Chicago Center
23:51 42.8072 -85.6619 54° Northeast 156 180 2,300 -420 Descending Chicago Center
23:52 42.8306 -85.6189 54° Northeast 149 171 1,900 -300 Descending Chicago Center
23:53 42.8519 -85.5822 51° Northeast 138 159 1,700 -420 Descending Chicago Center
23:54 42.8711 -85.5564 45° Northeast 117 135 1,100 -360 Descending Chicago Center
23:55 42.8900 -85.5317 44° Northeast 114 131 1,000 -120 Descending Chicago Center
23:57 42.8808 -85.5228 56° Northeast  Level Estimated
00:04 42.8808 -85.5228 56° Northeast  Level Estimated